createdAt,value
2023-05-15T00:01:35.441Z,10.32
2023-05-15T00:04:05.415Z,10.31
2023-05-15T00:06:32.500Z,10.36
2023-05-15T00:09:01.496Z,10.43
2023-05-15T00:11:28.417Z,10.35
2023-05-15T00:13:55.390Z,10.32
2023-05-15T00:16:22.140Z,10.31
2023-05-15T00:18:49.062Z,10.31
2023-05-15T00:21:15.836Z,10.39
2023-05-15T00:23:44.801Z,10.30
2023-05-15T00:26:13.670Z,10.26
2023-05-15T00:28:42.992Z,10.21
2023-05-15T00:31:09.955Z,10.17
2023-05-15T00:33:39.252Z,10.21
2023-05-15T00:36:06.656Z,10.17
2023-05-15T00:38:33.773Z,10.14
2023-05-15T00:41:07.852Z,10.29
2023-05-15T00:43:37.361Z,10.35
2023-05-15T00:46:04.428Z,10.27
2023-05-15T00:48:31.776Z,10.24
2023-05-15T00:51:05.087Z,10.16
2023-05-15T00:53:34.647Z,10.06
2023-05-15T00:56:03.475Z,10.02
2023-05-15T00:58:32.281Z,9.97
2023-05-15T01:01:00.556Z,9.96
2023-05-15T01:03:27.412Z,9.96
2023-05-15T01:05:54.567Z,9.97
2023-05-15T01:08:34.743Z,9.97
2023-05-15T01:11:04.698Z,10.06
2023-05-15T01:13:31.787Z,10.02
2023-05-15T01:16:07.574Z,9.98
2023-05-15T01:18:37.325Z,10.14
2023-05-15T01:21:11.024Z,10.12
2023-05-15T01:24:10.091Z,10.11
2023-05-15T01:27:14.335Z,10.02
2023-05-15T01:29:58.927Z,9.94
2023-05-15T01:32:45.042Z,9.84
2023-05-15T01:35:24.158Z,9.73
2023-05-15T01:38:02.999Z,9.78
2023-05-15T01:40:30.109Z,9.73
2023-05-15T01:43:04.196Z,9.70
2023-05-15T01:45:31.225Z,9.63
2023-05-15T01:47:59.373Z,9.74
2023-05-15T01:50:28.193Z,9.73
2023-05-15T01:52:57.547Z,9.65
2023-05-15T01:55:27.351Z,9.61
2023-05-15T01:57:55.875Z,9.67
2023-05-15T02:00:25.469Z,9.61
2023-05-15T02:02:52.650Z,9.60
2023-05-15T02:05:19.497Z,9.61
2023-05-15T02:07:47.633Z,9.50
2023-05-15T02:10:17.563Z,9.51
2023-05-15T02:12:48.880Z,9.50
2023-05-15T02:15:19.504Z,9.42
2023-05-15T02:17:50.433Z,9.42
2023-05-15T02:20:23.097Z,9.40
2023-05-15T02:22:55.969Z,9.37
2023-05-15T02:25:49.402Z,9.29
2023-05-15T02:28:23.631Z,9.36
2023-05-15T02:30:56.699Z,9.37
2023-05-15T02:33:46.829Z,9.36
2023-05-15T02:36:18.759Z,9.40
2023-05-15T02:38:48.974Z,9.31
2023-05-15T02:41:16.513Z,9.27
2023-05-15T02:43:46.299Z,9.25
2023-05-15T02:46:14.981Z,9.31
2023-05-15T02:48:44.689Z,9.32
2023-05-15T02:51:13.125Z,9.21
2023-05-15T02:53:43.539Z,9.13
2023-05-15T02:56:10.992Z,9.10
2023-05-15T02:58:38.258Z,9.09
2023-05-15T03:01:05.411Z,9.06
2023-05-15T03:03:33.338Z,9.06
2023-05-15T03:06:03.208Z,9.04
2023-05-15T03:08:32.853Z,9.00
2023-05-15T03:11:02.357Z,8.94
2023-05-15T03:13:29.367Z,8.95
2023-05-15T03:15:57.013Z,8.99
2023-05-15T03:18:24.905Z,9.00
2023-05-15T03:20:52.776Z,9.09
2023-05-15T03:23:25.676Z,9.15
2023-05-15T03:25:52.321Z,9.08
2023-05-15T03:28:20.597Z,9.10
2023-05-15T03:30:55.510Z,9.12
2023-05-15T03:33:22.584Z,9.11
2023-05-15T03:35:51.728Z,9.08
2023-05-15T03:38:20.375Z,9.04
2023-05-15T03:40:51.309Z,9.13
2023-05-15T03:43:18.939Z,9.18
2023-05-15T03:45:48.356Z,9.19
2023-05-15T03:48:15.627Z,9.23
2023-05-15T03:50:44.881Z,9.22
2023-05-15T03:53:12.164Z,9.31
2023-05-15T03:55:38.985Z,9.40
2023-05-15T03:58:05.826Z,9.45
2023-05-15T04:00:33.884Z,9.45
2023-05-15T04:03:00.653Z,9.53
2023-05-15T04:05:27.788Z,9.61
2023-05-15T04:07:54.820Z,9.76
2023-05-15T04:10:21.574Z,9.78
2023-05-15T04:12:52.241Z,9.87
2023-05-15T04:15:24.300Z,10.00
2023-05-15T04:17:52.928Z,10.53
2023-05-15T04:20:23.781Z,11.30
2023-05-15T04:22:51.093Z,11.98
2023-05-15T04:25:18.869Z,12.50
2023-05-15T04:27:46.168Z,12.99
2023-05-15T04:30:13.565Z,13.37
2023-05-15T04:32:43.108Z,13.85
2023-05-15T04:35:14.004Z,14.28
2023-05-15T04:37:42.374Z,14.42
2023-05-15T04:40:10.694Z,14.74
2023-05-15T04:42:39.162Z,14.92
2023-05-15T04:45:11.249Z,15.02
2023-05-15T04:47:38.125Z,15.21
2023-05-15T04:50:07.148Z,15.41
2023-05-15T04:52:35.435Z,15.76
2023-05-15T04:55:02.368Z,15.74
2023-05-15T04:57:30.426Z,15.96
2023-05-15T04:59:58.432Z,16.15
2023-05-15T05:02:25.753Z,16.29
2023-05-15T05:04:52.514Z,16.37
2023-05-15T05:07:22.109Z,16.52
2023-05-15T05:09:49.007Z,16.75
2023-05-15T05:12:15.754Z,17.19
2023-05-15T05:14:44.701Z,17.38
2023-05-15T05:17:11.519Z,17.53
2023-05-15T05:19:38.163Z,17.57
2023-05-15T05:22:06.886Z,17.56
2023-05-15T05:24:35.893Z,17.81
2023-05-15T05:27:02.928Z,17.73
2023-05-15T05:29:38.166Z,18.15
2023-05-15T05:32:14.287Z,17.98
2023-05-15T05:34:43.633Z,19.35
2023-05-15T05:37:10.336Z,18.42
2023-05-15T05:39:36.978Z,18.50
2023-05-15T05:42:14.583Z,18.05
2023-05-15T05:44:41.501Z,17.89
2023-05-15T05:47:13.845Z,17.47
2023-05-15T05:49:45.150Z,17.72
2023-05-15T05:52:11.842Z,18.09
2023-05-15T05:54:46.473Z,18.05
2023-05-15T05:57:14.479Z,18.05
2023-05-15T05:59:41.726Z,18.19
2023-05-15T06:02:14.669Z,18.46
2023-05-15T06:04:41.408Z,18.22
2023-05-15T06:07:08.781Z,18.36
2023-05-15T06:09:36.217Z,18.12
2023-05-15T06:12:07.161Z,18.15
2023-05-15T06:14:34.341Z,17.82
2023-05-15T06:17:01.846Z,18.17
2023-05-15T06:19:29.198Z,17.83
2023-05-15T06:21:56.167Z,18.05
2023-05-15T06:24:22.942Z,18.27
2023-05-15T06:26:50.643Z,18.89
2023-05-15T06:29:19.254Z,18.42
2023-05-15T06:31:48.505Z,18.24
2023-05-15T06:34:16.688Z,18.06
2023-05-15T06:36:43.749Z,18.50
2023-05-15T06:39:20.417Z,19.05
2023-05-15T06:41:47.808Z,18.13
2023-05-15T06:44:15.031Z,18.48
2023-05-15T06:46:42.466Z,18.52
2023-05-15T06:49:11.509Z,18.64
2023-05-15T06:51:38.364Z,17.97
2023-05-15T06:54:05.289Z,18.07
2023-05-15T06:56:32.135Z,18.43
2023-05-15T06:58:58.876Z,17.54
2023-05-15T07:01:25.662Z,17.31
2023-05-15T07:03:52.900Z,17.97
2023-05-15T07:06:19.855Z,18.15
2023-05-15T07:08:47.144Z,18.37
2023-05-15T07:11:14.194Z,17.81
2023-05-15T07:13:43.691Z,17.92
2023-05-15T07:16:12.589Z,18.47
2023-05-15T07:18:39.486Z,18.54
2023-05-15T07:21:06.608Z,18.50
2023-05-15T07:23:33.423Z,18.72
2023-05-15T07:26:00.329Z,18.72
2023-05-15T07:28:34.606Z,18.33
2023-05-15T07:31:03.109Z,18.41
2023-05-15T07:33:30.785Z,18.63
2023-05-15T07:36:05.586Z,17.92
2023-05-15T07:38:32.395Z,17.96
2023-05-15T07:40:59.010Z,18.24
2023-05-15T07:43:25.705Z,18.07
2023-05-15T07:45:52.559Z,18.68
2023-05-15T07:48:20.399Z,18.80
2023-05-15T07:50:47.573Z,19.04
2023-05-15T07:53:16.897Z,18.69
2023-05-15T07:55:44.154Z,17.79
2023-05-15T07:58:10.884Z,18.32
2023-05-15T08:00:38.260Z,18.11
2023-05-15T08:03:05.015Z,18.17
2023-05-15T08:05:32.730Z,18.29
2023-05-15T08:08:01.151Z,18.20
2023-05-15T08:10:27.948Z,18.12
2023-05-15T08:12:54.845Z,17.86
2023-05-15T08:15:21.709Z,18.25
2023-05-15T08:17:48.566Z,18.39
2023-05-15T08:20:15.275Z,18.26
2023-05-15T08:22:41.914Z,18.20
2023-05-15T08:25:12.673Z,18.25
2023-05-15T08:27:39.508Z,17.84
2023-05-15T08:30:06.897Z,18.14
2023-05-15T08:32:33.574Z,18.36
2023-05-15T08:35:00.391Z,18.31
2023-05-15T08:37:27.256Z,18.75
2023-05-15T08:39:56.579Z,18.57
2023-05-15T08:43:04.384Z,18.41
2023-05-15T08:45:35.957Z,18.64
2023-05-15T08:48:11.493Z,18.83
2023-05-15T08:50:41.301Z,18.41
2023-05-15T08:53:08.150Z,18.50
2023-05-15T08:55:34.852Z,18.48
2023-05-15T08:58:09.527Z,18.66
2023-05-15T09:06:30.991Z,18.31
2023-05-15T09:12:28.336Z,18.66
2023-05-15T09:39:54.392Z,19.04
2023-05-15T09:42:31.347Z,19.17
2023-05-15T09:45:01.514Z,19.10
2023-05-15T09:47:28.548Z,18.48
2023-05-15T09:49:57.884Z,18.79
2023-05-15T09:52:25.404Z,19.00
2023-05-15T09:54:53.931Z,18.74
2023-05-15T09:57:24.143Z,18.74
2023-05-15T09:59:51.341Z,18.54
2023-05-15T10:02:32.909Z,18.57
2023-05-15T10:05:02.200Z,18.48
2023-05-15T10:07:38.497Z,18.78
2023-05-15T10:10:06.425Z,18.97
2023-05-15T10:12:36.702Z,18.55
2023-05-15T10:15:03.763Z,18.72
2023-05-15T10:17:32.076Z,18.88
2023-05-15T10:20:00.547Z,19.05
2023-05-15T10:22:30.542Z,19.31
2023-05-15T10:25:03.886Z,19.53
2023-05-15T10:27:31.204Z,19.34
2023-05-15T10:29:58.806Z,19.42
2023-05-15T10:32:26.239Z,19.28
2023-05-15T10:34:54.660Z,19.39
2023-05-15T10:37:21.746Z,19.27
2023-05-15T10:39:48.685Z,19.36
2023-05-15T10:42:15.832Z,19.54
2023-05-15T10:44:42.475Z,19.54
2023-05-15T10:47:09.593Z,19.44
2023-05-15T10:49:36.479Z,19.75
2023-05-15T10:52:03.389Z,19.84
2023-05-15T10:54:30.523Z,19.52
2023-05-15T10:56:57.382Z,19.23
2023-05-15T10:59:31.463Z,19.39
2023-05-15T11:02:19.012Z,19.62
2023-05-15T11:04:46.091Z,19.86
2023-05-15T11:07:16.218Z,19.65
2023-05-15T11:09:42.963Z,19.65
2023-05-15T11:12:16.855Z,19.91
2023-05-15T11:15:03.814Z,19.89
2023-05-15T11:17:32.873Z,19.80
2023-05-15T11:20:00.061Z,19.69
2023-05-15T11:22:33.264Z,20.08
2023-05-15T11:25:12.545Z,20.16
2023-05-15T11:27:39.203Z,19.38
2023-05-15T11:30:09.144Z,19.22
2023-05-15T11:32:44.907Z,18.94
2023-05-15T11:35:13.096Z,18.99
2023-05-15T11:37:44.036Z,19.18
2023-05-15T11:40:15.541Z,19.04
2023-05-15T11:42:42.163Z,19.15
2023-05-15T11:45:10.833Z,19.14
2023-05-15T11:47:37.708Z,18.75
2023-05-15T11:50:06.178Z,19.55
2023-05-15T11:52:32.997Z,19.75
2023-05-15T11:55:00.155Z,19.48
2023-05-15T11:57:27.280Z,19.47
2023-05-15T11:59:54.994Z,19.79
2023-05-15T12:02:22.975Z,19.98
2023-05-15T12:04:50.530Z,19.33
2023-05-15T12:07:17.905Z,19.15
2023-05-15T12:09:44.592Z,19.61
2023-05-15T12:12:14.560Z,20.44
2023-05-15T12:14:41.315Z,19.93
2023-05-15T12:17:08.007Z,20.25
2023-05-15T12:19:34.890Z,19.69
2023-05-15T12:22:01.639Z,19.93
2023-05-15T12:24:28.378Z,19.74
2023-05-15T12:26:57.313Z,20.14
2023-05-15T12:29:24.573Z,19.92
2023-05-15T12:31:54.240Z,20.10
2023-05-15T12:34:21.658Z,20.32
2023-05-15T12:36:48.256Z,20.36
2023-05-15T12:39:14.937Z,20.36
2023-05-15T12:41:41.592Z,20.18
2023-05-15T12:44:16.485Z,19.76
2023-05-15T12:46:43.189Z,19.51
2023-05-15T12:49:10.736Z,19.77
2023-05-15T12:51:43.346Z,19.92
2023-05-15T12:54:20.117Z,20.18
2023-05-15T12:56:49.899Z,20.48
2023-05-15T12:59:16.532Z,20.17
2023-05-15T13:01:43.310Z,19.99
2023-05-15T13:04:10.802Z,19.85
2023-05-15T13:09:10.427Z,20.07
2023-05-15T13:11:37.047Z,19.85
2023-05-15T13:14:10.876Z,19.56
2023-05-15T13:16:37.740Z,19.82
2023-05-15T13:19:05.578Z,19.65
2023-05-15T13:21:32.261Z,19.60
2023-05-15T13:23:58.945Z,19.41
2023-05-15T13:26:26.142Z,19.70
2023-05-15T13:28:52.847Z,19.65
2023-05-15T13:31:19.609Z,19.66
2023-05-15T13:33:46.325Z,19.54
2023-05-15T13:36:13.451Z,19.44
2023-05-15T13:38:40.488Z,19.40
2023-05-15T13:41:07.274Z,19.37
2023-05-15T13:43:33.927Z,19.39
2023-05-15T13:46:00.675Z,19.30
2023-05-15T13:48:27.312Z,19.63
2023-05-15T13:50:53.954Z,19.56
2023-05-15T13:53:21.276Z,19.74
2023-05-15T13:55:47.993Z,19.51
2023-05-15T13:58:14.979Z,19.55
2023-05-15T14:00:43.117Z,19.60
2023-05-15T14:03:11.230Z,19.56
2023-05-15T14:05:40.176Z,19.46
2023-05-15T14:08:06.909Z,19.30
2023-05-15T14:10:33.831Z,19.26
2023-05-15T14:13:01.040Z,19.45
2023-05-15T14:15:27.847Z,19.59
2023-05-15T14:17:54.546Z,19.34
2023-05-15T14:20:21.256Z,19.36
2023-05-15T14:22:47.946Z,19.51
2023-05-15T14:25:14.579Z,19.26
2023-05-15T14:27:41.301Z,19.30
2023-05-15T14:30:08.608Z,19.27
2023-05-15T14:32:35.391Z,19.28
2023-05-15T14:35:02.214Z,19.33
2023-05-15T14:37:28.897Z,19.15
2023-05-15T14:39:55.568Z,19.28
2023-05-15T14:42:22.253Z,19.42
2023-05-15T14:44:49.410Z,19.70
2023-05-15T14:47:16.799Z,19.73
2023-05-15T14:49:43.578Z,19.64
2023-05-15T14:52:11.484Z,19.28
2023-05-15T14:54:39.090Z,19.41
2023-05-15T14:57:06.249Z,19.61
2023-05-15T14:59:32.947Z,19.59
2023-05-15T15:01:59.696Z,19.58
2023-05-15T15:04:30.531Z,18.93
2023-05-15T15:06:57.397Z,18.41
2023-05-15T15:09:26.421Z,18.91
2023-05-15T15:11:54.350Z,19.43
2023-05-15T15:14:21.055Z,19.69
2023-05-15T15:16:47.851Z,19.29
2023-05-15T15:19:16.797Z,18.90
2023-05-15T15:21:45.128Z,18.80
2023-05-15T15:24:11.809Z,19.19
2023-05-15T15:26:38.484Z,19.07
2023-05-15T15:29:05.348Z,19.07
2023-05-15T15:31:32.119Z,19.23
2023-05-15T15:33:58.900Z,19.56
2023-05-15T15:36:25.922Z,19.37
2023-05-15T15:38:52.626Z,19.41
2023-05-15T15:41:21.359Z,18.93
2023-05-15T15:43:48.265Z,18.71
2023-05-15T15:46:14.987Z,18.20
2023-05-15T15:48:42.789Z,18.06
2023-05-15T15:51:09.455Z,18.17
2023-05-15T15:53:36.129Z,18.52
2023-05-15T15:56:02.812Z,18.79
2023-05-15T15:58:30.122Z,18.49
2023-05-15T16:00:57.659Z,18.45
2023-05-15T16:03:24.801Z,18.42
2023-05-15T16:05:51.918Z,18.50
2023-05-15T16:08:18.672Z,18.60
2023-05-15T16:10:48.365Z,18.82
2023-05-15T16:13:14.930Z,18.52
2023-05-15T16:15:41.595Z,18.42
2023-05-15T16:18:08.270Z,18.18
2023-05-15T16:20:35.401Z,18.16
2023-05-15T16:23:02.207Z,17.80
2023-05-15T16:25:28.886Z,17.97
2023-05-15T16:27:55.657Z,17.92
2023-05-15T16:30:23.440Z,17.92
2023-05-15T16:32:53.210Z,17.84
2023-05-15T16:35:22.205Z,18.08
2023-05-15T16:37:49.110Z,18.00
2023-05-15T16:40:16.049Z,18.04
2023-05-15T16:42:43.185Z,18.40
2023-05-15T16:45:10.182Z,18.41
2023-05-15T16:47:39.220Z,18.49
2023-05-15T16:50:06.870Z,18.62
2023-05-15T16:52:33.530Z,18.38
2023-05-15T16:55:00.250Z,18.42
2023-05-15T16:57:27.514Z,18.02
2023-05-15T17:00:01.059Z,17.75
2023-05-15T17:02:39.025Z,17.68
2023-05-15T17:08:11.022Z,17.80
2023-05-15T17:10:49.321Z,17.55
2023-05-15T17:13:19.382Z,17.58
2023-05-15T17:19:00.982Z,17.09
2023-05-15T17:21:42.090Z,16.91
2023-05-15T17:24:16.132Z,17.00
2023-05-15T17:29:56.592Z,16.69
2023-05-15T17:32:26.646Z,16.57
2023-05-15T17:35:36.276Z,16.37
2023-05-15T17:38:11.432Z,16.12
2023-05-15T17:40:38.494Z,16.03
2023-05-15T17:43:34.691Z,15.95
2023-05-15T17:46:31.295Z,15.87
2023-05-15T17:49:03.889Z,15.79
2023-05-15T17:52:01.055Z,15.85
2023-05-15T17:54:31.869Z,16.12
2023-05-15T17:57:01.994Z,16.37
2023-05-15T17:59:55.798Z,16.14
2023-05-15T18:03:08.448Z,15.98
2023-05-15T18:05:39.793Z,15.97
2023-05-15T18:08:34.287Z,15.75
2023-05-15T18:14:21.740Z,15.41
2023-05-15T18:16:53.759Z,15.32
2023-05-15T18:19:20.896Z,15.13
2023-05-15T18:21:49.200Z,15.13
2023-05-15T18:24:16.610Z,15.01
2023-05-15T18:26:46.910Z,14.80
2023-05-15T18:29:16.589Z,14.72
2023-05-15T18:31:45.188Z,14.66
2023-05-15T18:34:12.315Z,14.51
2023-05-15T18:36:39.932Z,14.47
2023-05-15T18:39:09.876Z,14.32
2023-05-15T18:41:41.023Z,14.13
2023-05-15T18:44:08.640Z,14.03
2023-05-15T18:46:38.770Z,13.90
2023-05-15T18:49:06.587Z,13.78
2023-05-15T18:51:33.574Z,13.72
2023-05-15T18:54:00.503Z,13.60
2023-05-15T18:56:27.416Z,13.53
2023-05-15T18:58:54.927Z,13.50
2023-05-15T19:01:23.009Z,13.45
2023-05-15T19:03:51.489Z,13.46
2023-05-15T19:06:21.023Z,13.31
2023-05-15T19:08:49.744Z,13.24
2023-05-15T19:11:17.668Z,13.07
2023-05-15T19:13:45.501Z,12.98
2023-05-15T19:16:12.924Z,12.90
2023-05-15T19:18:40.997Z,12.81
2023-05-15T19:21:07.902Z,12.80
2023-05-15T19:23:35.299Z,12.71
2023-05-15T19:26:03.214Z,12.62
2023-05-15T19:28:30.892Z,12.47
2023-05-15T19:36:08.493Z,12.37
2023-05-15T19:46:03.693Z,12.23
2023-05-15T19:49:29.986Z,12.09
2023-05-15T19:52:24.793Z,11.95
2023-05-15T20:08:38.597Z,11.52
2023-05-15T20:12:16.231Z,11.46
2023-05-15T20:19:01.130Z,10.99
2023-05-15T20:21:43.374Z,10.91
2023-05-15T20:24:11.637Z,10.79
2023-05-15T20:26:43.811Z,10.71
2023-05-15T20:29:14.285Z,10.69
2023-05-15T20:31:41.832Z,10.71
2023-05-15T20:34:09.216Z,10.74
2023-05-15T20:36:39.522Z,10.82
2023-05-15T20:39:12.537Z,10.77
2023-05-15T20:41:43.669Z,10.70
2023-05-15T20:44:47.415Z,10.70
2023-05-15T20:47:47.653Z,10.73
2023-05-15T20:50:35.657Z,10.83
2023-05-15T20:53:06.272Z,10.72
2023-05-15T20:55:35.973Z,10.60
2023-05-15T21:01:06.278Z,10.66
2023-05-15T21:06:34.034Z,10.66
2023-05-15T21:09:05.312Z,10.61
2023-05-15T21:12:13.525Z,10.60
2023-05-15T21:14:49.622Z,10.52
2023-05-15T21:17:33.956Z,10.41
2023-05-15T21:20:25.453Z,10.22
2023-05-15T21:23:06.640Z,10.14
2023-05-15T21:25:42.812Z,10.06
2023-05-15T21:28:12.569Z,10.06
2023-05-15T21:30:41.517Z,10.02
2023-05-15T21:33:11.518Z,10.04
2023-05-15T21:35:42.167Z,9.95
2023-05-15T21:38:11.992Z,9.94
2023-05-15T21:40:42.158Z,9.91
2023-05-15T21:43:09.552Z,10.05
2023-05-15T21:45:36.374Z,10.04
2023-05-15T21:48:12.417Z,10.06
2023-05-15T21:50:39.708Z,10.10
2023-05-15T21:53:06.664Z,10.12
2023-05-15T21:55:33.474Z,10.02
2023-05-15T21:58:00.614Z,10.08
2023-05-15T22:00:29.278Z,10.14
2023-05-15T22:02:58.791Z,10.02
2023-05-15T22:05:28.450Z,10.12
2023-05-15T22:07:56.146Z,9.99
2023-05-15T22:10:23.633Z,9.97
2023-05-15T22:12:55.277Z,9.85
2023-05-15T22:15:22.569Z,9.91
2023-05-15T22:18:06.390Z,9.98
2023-05-15T22:20:50.990Z,9.90
2023-05-15T22:23:43.752Z,9.76
2023-05-15T22:26:16.580Z,9.69
2023-05-15T22:29:19.824Z,9.70
2023-05-15T22:32:11.138Z,9.62
2023-05-15T22:34:47.102Z,9.60
2023-05-15T22:37:24.946Z,9.61
2023-05-15T22:39:52.661Z,9.67
2023-05-15T22:42:20.388Z,9.75
2023-05-15T22:44:50.375Z,9.65
2023-05-15T22:47:28.626Z,9.63
2023-05-15T22:49:55.885Z,9.61
2023-05-15T22:52:31.550Z,9.55
2023-05-15T22:55:03.514Z,9.51
2023-05-15T22:57:41.036Z,9.47
2023-05-15T23:00:14.045Z,9.52
2023-05-15T23:03:00.303Z,9.48
2023-05-15T23:05:36.878Z,9.39
2023-05-15T23:08:12.656Z,9.38
2023-05-15T23:10:39.427Z,9.46
2023-05-15T23:13:06.307Z,9.45
2023-05-15T23:15:44.176Z,9.48
2023-05-15T23:18:11.889Z,9.42
2023-05-15T23:20:38.724Z,9.46
2023-05-15T23:23:11.573Z,9.37
2023-05-15T23:25:40.247Z,9.39
2023-05-15T23:28:07.053Z,9.38
2023-05-15T23:30:42.806Z,9.41
2023-05-15T23:33:26.676Z,9.29
2023-05-15T23:36:11.707Z,9.32
2023-05-15T23:38:43.188Z,9.30
2023-05-15T23:41:11.298Z,9.30
2023-05-15T23:43:41.098Z,9.34
2023-05-15T23:46:36.245Z,9.20
2023-05-15T23:49:10.958Z,9.15
2023-05-15T23:52:17.629Z,9.18
2023-05-15T23:54:47.355Z,9.14
2023-05-15T23:57:23.793Z,9.12
2023-05-15T23:59:52.112Z,9.08
